createdAt,value
2024-03-28T00:00:28.679Z,11.37
2024-03-28T00:03:16.510Z,11.39
2024-03-28T00:05:55.998Z,11.43
2024-03-28T00:08:25.477Z,11.47
2024-03-28T00:10:54.353Z,11.47
2024-03-28T00:13:22.839Z,11.49
2024-03-28T00:16:00.426Z,11.48
2024-03-28T00:18:29.941Z,11.46
2024-03-28T00:21:03.113Z,11.44
2024-03-28T00:23:30.794Z,11.42
2024-03-28T00:25:59.671Z,11.40
2024-03-28T00:28:27.734Z,11.38
2024-03-28T00:30:55.387Z,11.35
2024-03-28T00:33:23.030Z,11.32
2024-03-28T00:35:51.142Z,11.28
2024-03-28T00:38:18.937Z,11.25
2024-03-28T00:40:56.464Z,11.21
2024-03-28T00:43:24.382Z,11.17
2024-03-28T00:45:52.016Z,11.13
2024-03-28T00:48:20.405Z,11.09
2024-03-28T00:51:00.090Z,11.07
2024-03-28T00:53:28.650Z,11.05
2024-03-28T00:55:58.817Z,11.03
2024-03-28T00:58:27.423Z,11.01
2024-03-28T01:00:55.140Z,11.00
2024-03-28T01:03:23.069Z,10.99
2024-03-28T01:05:58.511Z,10.98
2024-03-28T01:08:26.477Z,10.97
2024-03-28T01:10:55.496Z,10.96
2024-03-28T01:13:23.347Z,10.96
2024-03-28T01:15:50.927Z,10.96
2024-03-28T01:18:18.507Z,10.97
2024-03-28T01:20:46.162Z,10.98
2024-03-28T01:23:13.842Z,11.00
2024-03-28T01:25:41.497Z,11.02
2024-03-28T01:28:11.003Z,11.03
2024-03-28T01:30:40.539Z,11.05
2024-03-28T01:33:08.159Z,11.04
2024-03-28T01:35:37.505Z,11.04
2024-03-28T01:38:05.259Z,11.04
2024-03-28T01:40:32.931Z,11.04
2024-03-28T01:43:06.338Z,11.03
2024-03-28T01:45:34.964Z,11.01
2024-03-28T01:48:03.302Z,10.99
2024-03-28T01:50:31.392Z,10.98
2024-03-28T01:53:00.357Z,10.95
2024-03-28T01:55:28.447Z,10.96
2024-03-28T01:57:58.490Z,10.98
2024-03-28T02:00:26.303Z,11.02
2024-03-28T02:02:58.346Z,11.05
2024-03-28T02:05:26.563Z,11.09
2024-03-28T02:07:54.178Z,11.13
2024-03-28T02:10:21.815Z,11.16
2024-03-28T02:12:50.093Z,11.21
2024-03-28T02:15:17.739Z,11.26
2024-03-28T02:17:47.006Z,11.30
2024-03-28T02:20:14.780Z,11.34
2024-03-28T02:22:42.381Z,11.37
2024-03-28T02:25:10.389Z,11.40
2024-03-28T02:27:37.967Z,11.41
2024-03-28T02:30:09.918Z,11.43
2024-03-28T02:32:37.890Z,11.45
2024-03-28T02:35:08.053Z,11.47
2024-03-28T02:37:35.707Z,11.50
2024-03-28T02:40:03.442Z,11.54
2024-03-28T02:42:31.046Z,11.58
2024-03-28T02:44:58.664Z,11.62
2024-03-28T02:47:26.354Z,11.67
2024-03-28T02:49:54.569Z,11.69
2024-03-28T02:52:22.609Z,11.71
2024-03-28T02:54:50.359Z,11.73
2024-03-28T02:57:25.166Z,11.74
2024-03-28T02:59:52.890Z,11.76
2024-03-28T03:02:20.628Z,11.78
2024-03-28T03:04:48.536Z,11.79
2024-03-28T03:07:16.520Z,11.81
2024-03-28T03:09:44.264Z,11.82
2024-03-28T03:12:12.336Z,11.84
2024-03-28T03:14:39.971Z,11.85
2024-03-28T03:17:07.559Z,11.85
2024-03-28T03:19:35.361Z,11.86
2024-03-28T03:22:03.768Z,11.86
2024-03-28T03:24:31.396Z,11.85
2024-03-28T03:26:59.320Z,11.84
2024-03-28T03:29:27.017Z,11.84
2024-03-28T03:31:54.557Z,11.83
2024-03-28T03:34:22.264Z,11.83
2024-03-28T03:36:50.021Z,11.83
2024-03-28T03:39:17.567Z,11.84
2024-03-28T03:41:46.031Z,11.86
2024-03-28T03:44:13.686Z,11.88
2024-03-28T03:46:42.763Z,11.91
2024-03-28T03:49:10.522Z,11.93
2024-03-28T03:51:38.732Z,11.95
2024-03-28T03:54:06.352Z,11.96
2024-03-28T03:56:33.990Z,11.98
2024-03-28T03:59:02.899Z,11.99
2024-03-28T04:01:30.852Z,12.00
2024-03-28T04:03:58.495Z,12.01
2024-03-28T04:06:26.199Z,12.01
2024-03-28T04:08:53.962Z,12.01
2024-03-28T04:11:21.580Z,11.99
2024-03-28T04:13:49.170Z,11.99
2024-03-28T04:16:16.851Z,12.01
2024-03-28T04:18:44.446Z,12.01
2024-03-28T04:21:12.186Z,12.01
2024-03-28T04:23:39.932Z,12.01
2024-03-28T04:26:07.493Z,11.99
2024-03-28T04:28:35.066Z,11.98
2024-03-28T04:31:02.931Z,11.95
2024-03-28T04:33:30.493Z,11.94
2024-03-28T04:35:58.232Z,11.91
2024-03-28T04:38:25.809Z,11.90
2024-03-28T04:40:53.509Z,11.89
2024-03-28T04:43:21.219Z,11.87
2024-03-28T04:45:48.919Z,11.86
2024-03-28T04:48:16.698Z,11.84
2024-03-28T04:50:44.304Z,11.85
2024-03-28T04:53:12.082Z,11.84
2024-03-28T04:55:41.116Z,11.84
2024-03-28T04:58:08.778Z,11.84
2024-03-28T05:00:37.411Z,11.85
2024-03-28T05:03:05.747Z,11.88
2024-03-28T05:05:33.537Z,11.89
2024-03-28T05:08:01.178Z,11.93
2024-03-28T05:10:29.145Z,11.95
2024-03-28T05:12:57.091Z,11.97
2024-03-28T05:15:24.956Z,11.99
2024-03-28T05:17:52.571Z,12.05
2024-03-28T05:20:20.404Z,12.11
2024-03-28T05:22:47.979Z,12.15
2024-03-28T05:25:15.728Z,12.18
2024-03-28T05:27:43.343Z,12.22
2024-03-28T05:30:11.304Z,12.25
2024-03-28T05:32:38.895Z,12.29
2024-03-28T05:35:06.691Z,12.31
2024-03-28T05:37:34.261Z,12.33
2024-03-28T05:40:01.969Z,12.37
2024-03-28T05:42:29.615Z,12.40
2024-03-28T05:44:57.303Z,12.44
2024-03-28T05:47:24.951Z,12.48
2024-03-28T05:49:52.586Z,12.52
2024-03-28T05:52:20.176Z,12.55
2024-03-28T05:54:47.795Z,12.58
2024-03-28T05:57:15.432Z,12.62
2024-03-28T05:59:43.031Z,12.64
2024-03-28T06:02:10.624Z,12.66
2024-03-28T06:04:38.329Z,12.68
2024-03-28T06:07:05.937Z,12.70
2024-03-28T06:09:33.550Z,12.73
2024-03-28T06:12:01.743Z,12.76
2024-03-28T06:14:29.318Z,12.80
2024-03-28T06:16:56.930Z,12.85
2024-03-28T06:19:24.501Z,12.92
2024-03-28T06:21:52.093Z,13.00
2024-03-28T06:24:20.026Z,13.06
2024-03-28T06:26:50.669Z,13.09
2024-03-28T06:29:18.254Z,13.15
2024-03-28T06:31:46.002Z,13.21
2024-03-28T06:34:13.617Z,13.27
2024-03-28T06:36:41.204Z,13.38
2024-03-28T06:39:08.930Z,13.49
2024-03-28T06:41:36.528Z,13.61
2024-03-28T06:44:04.181Z,13.74
2024-03-28T06:46:32.056Z,13.86
2024-03-28T06:48:59.649Z,13.95
2024-03-28T06:51:27.282Z,14.03
2024-03-28T06:53:54.992Z,14.10
2024-03-28T06:56:22.636Z,14.15
2024-03-28T06:58:52.105Z,14.18
2024-03-28T07:01:19.947Z,14.17
2024-03-28T07:03:47.544Z,14.14
2024-03-28T07:06:19.339Z,14.11
2024-03-28T07:08:47.296Z,14.09
2024-03-28T07:11:15.017Z,14.07
2024-03-28T07:13:42.626Z,14.06
2024-03-28T07:16:10.456Z,14.03
2024-03-28T07:18:38.077Z,14.01
2024-03-28T07:21:05.743Z,14.02
2024-03-28T07:23:33.423Z,14.03
2024-03-28T07:26:01.094Z,14.05
2024-03-28T07:28:28.707Z,14.09
2024-03-28T07:30:56.312Z,14.16
2024-03-28T07:33:23.842Z,14.25
2024-03-28T07:35:51.556Z,14.36
2024-03-28T07:38:19.553Z,14.49
2024-03-28T07:40:51.861Z,14.62
2024-03-28T07:43:19.483Z,14.73
2024-03-28T07:45:47.101Z,14.82
2024-03-28T07:48:15.062Z,14.90
2024-03-28T07:50:42.718Z,14.98
2024-03-28T07:53:10.406Z,15.04
2024-03-28T07:55:38.006Z,15.08
2024-03-28T07:58:05.615Z,15.15
2024-03-28T08:00:33.459Z,15.16
2024-03-28T08:03:01.076Z,15.11
2024-03-28T08:05:28.778Z,15.05
2024-03-28T08:07:56.425Z,14.99
2024-03-28T08:10:24.234Z,14.99
2024-03-28T08:12:51.831Z,15.04
2024-03-28T08:15:19.440Z,15.07
2024-03-28T08:17:47.208Z,15.06
2024-03-28T08:20:14.968Z,15.08
2024-03-28T08:22:43.084Z,15.10
2024-03-28T08:25:10.742Z,15.08
2024-03-28T08:27:39.795Z,15.06
2024-03-28T08:30:08.121Z,15.11
2024-03-28T08:32:35.859Z,15.19
2024-03-28T08:35:03.856Z,15.30
2024-03-28T08:37:31.520Z,15.38
2024-03-28T08:39:59.397Z,15.49
2024-03-28T08:42:27.168Z,15.51
2024-03-28T08:44:54.776Z,15.55
2024-03-28T08:47:22.548Z,15.66
2024-03-28T08:49:50.280Z,15.83
2024-03-28T08:52:18.338Z,16.01
2024-03-28T08:54:46.052Z,16.21
2024-03-28T08:57:13.678Z,16.30
2024-03-28T08:59:41.298Z,16.38
2024-03-28T09:02:08.932Z,16.43
2024-03-28T09:04:36.615Z,16.56
2024-03-28T09:07:04.426Z,16.75
2024-03-28T09:09:32.088Z,16.85
2024-03-28T09:11:59.795Z,16.87
2024-03-28T09:14:27.406Z,16.80
2024-03-28T09:16:55.193Z,16.65
2024-03-28T09:19:22.802Z,16.61
2024-03-28T09:21:50.728Z,16.67
2024-03-28T09:24:18.906Z,16.71
2024-03-28T09:26:46.642Z,16.84
2024-03-28T09:29:14.346Z,16.85
2024-03-28T09:31:41.909Z,16.81
2024-03-28T09:34:09.490Z,16.70
2024-03-28T09:36:37.523Z,16.78
2024-03-28T09:39:05.251Z,16.94
2024-03-28T09:41:34.550Z,17.03
2024-03-28T09:44:06.628Z,17.14
2024-03-28T09:46:34.759Z,17.21
2024-03-28T09:49:03.726Z,17.36
2024-03-28T09:51:31.394Z,17.31
2024-03-28T09:53:59.151Z,17.19
2024-03-28T09:56:26.698Z,17.01
2024-03-28T09:58:55.615Z,16.69
2024-03-28T10:01:25.018Z,16.27
2024-03-28T10:04:06.405Z,15.90
2024-03-28T10:06:34.060Z,15.67
2024-03-28T10:09:03.046Z,15.48
2024-03-28T10:11:31.080Z,15.25
2024-03-28T10:13:58.849Z,14.88
2024-03-28T10:16:26.651Z,14.57
2024-03-28T10:18:57.587Z,14.41
2024-03-28T10:21:25.371Z,14.31
2024-03-28T10:23:53.028Z,14.22
2024-03-28T10:26:20.791Z,14.24
2024-03-28T10:28:48.636Z,14.51
2024-03-28T10:31:26.406Z,14.86
2024-03-28T10:33:54.569Z,15.34
2024-03-28T10:36:25.285Z,15.81
2024-03-28T10:39:03.219Z,16.31
2024-03-28T10:41:31.104Z,16.89
2024-03-28T10:44:01.639Z,17.51
2024-03-28T10:46:29.938Z,18.00
2024-03-28T10:48:58.280Z,17.99
2024-03-28T10:51:32.954Z,17.58
2024-03-28T10:54:06.576Z,17.23
2024-03-28T10:56:40.376Z,16.96
2024-03-28T10:59:09.839Z,16.82
2024-03-28T11:01:38.406Z,16.70
2024-03-28T11:04:06.543Z,16.53
2024-03-28T11:06:34.401Z,16.15
2024-03-28T11:09:02.587Z,15.76
2024-03-28T11:11:31.784Z,15.54
2024-03-28T11:13:59.501Z,15.42
2024-03-28T11:16:27.236Z,15.43
2024-03-28T11:19:01.072Z,15.48
2024-03-28T11:21:30.429Z,15.68
2024-03-28T11:23:59.364Z,16.05
2024-03-28T11:26:27.747Z,16.60
2024-03-28T11:29:06.407Z,17.11
2024-03-28T11:31:35.847Z,17.43
2024-03-28T11:34:06.578Z,17.43
2024-03-28T11:36:34.699Z,17.23
2024-03-28T11:39:02.330Z,16.89
2024-03-28T11:41:30.708Z,16.68
2024-03-28T11:43:58.440Z,16.51
2024-03-28T11:46:26.021Z,16.41
2024-03-28T11:49:07.731Z,16.50
2024-03-28T11:51:43.993Z,16.69
2024-03-28T11:54:12.556Z,17.12
2024-03-28T11:56:44.102Z,17.70
2024-03-28T11:59:21.737Z,17.88
2024-03-28T12:01:50.233Z,17.78
2024-03-28T12:04:25.041Z,17.60
2024-03-28T12:06:54.715Z,17.54
2024-03-28T12:09:22.590Z,17.41
2024-03-28T12:11:50.266Z,17.19
2024-03-28T12:14:23.928Z,16.77
2024-03-28T12:16:51.645Z,16.30
2024-03-28T12:19:25.821Z,15.90
2024-03-28T12:21:53.441Z,15.87
2024-03-28T12:24:21.218Z,15.95
2024-03-28T12:26:48.836Z,15.91
2024-03-28T12:29:24.974Z,15.86
2024-03-28T12:32:06.619Z,15.74
2024-03-28T12:34:34.385Z,15.68
2024-03-28T12:37:02.165Z,15.69
2024-03-28T12:39:29.795Z,15.87
2024-03-28T12:41:57.516Z,16.38
2024-03-28T12:44:28.039Z,17.79
2024-03-28T12:46:55.611Z,19.68
2024-03-28T12:49:23.688Z,21.07
2024-03-28T12:51:51.290Z,22.24
2024-03-28T12:54:18.903Z,23.02
2024-03-28T12:56:46.689Z,23.79
2024-03-28T12:59:14.456Z,24.28
2024-03-28T13:01:42.227Z,24.10
2024-03-28T13:04:09.890Z,24.25
2024-03-28T13:06:41.830Z,24.50
2024-03-28T13:09:12.325Z,25.76
2024-03-28T13:11:39.902Z,26.46
2024-03-28T13:14:07.455Z,26.40
2024-03-28T13:16:35.063Z,25.60
2024-03-28T13:19:02.654Z,25.08
2024-03-28T13:21:30.274Z,24.17
2024-03-28T13:23:57.888Z,23.81
2024-03-28T13:26:44.061Z,23.48
2024-03-28T13:29:13.025Z,23.40
2024-03-28T13:31:40.678Z,23.77
2024-03-28T13:34:08.367Z,24.29
2024-03-28T13:36:36.324Z,25.13
2024-03-28T13:39:04.230Z,25.57
2024-03-28T13:41:32.205Z,25.81
2024-03-28T13:43:59.853Z,25.76
2024-03-28T13:46:27.744Z,25.38
2024-03-28T13:48:55.457Z,25.22
2024-03-28T13:51:23.158Z,25.56
2024-03-28T13:53:50.740Z,26.08
2024-03-28T13:56:18.413Z,26.37
2024-03-28T13:58:46.216Z,27.01
2024-03-28T14:01:14.378Z,26.90
2024-03-28T14:03:42.005Z,27.05
2024-03-28T14:06:09.659Z,27.04
2024-03-28T14:08:37.328Z,27.19
2024-03-28T14:11:05.019Z,27.33
2024-03-28T14:13:32.631Z,27.56
2024-03-28T14:16:00.733Z,27.54
2024-03-28T14:18:28.390Z,27.22
2024-03-28T14:20:55.978Z,26.34
2024-03-28T14:23:23.953Z,24.55
2024-03-28T14:26:00.161Z,22.88
2024-03-28T14:28:28.468Z,21.56
2024-03-28T14:30:56.392Z,20.48
2024-03-28T14:33:23.987Z,19.38
2024-03-28T14:36:06.302Z,18.39
2024-03-28T14:38:34.589Z,17.65
2024-03-28T14:41:07.362Z,17.22
2024-03-28T14:43:36.687Z,16.78
2024-03-28T14:46:09.188Z,16.50
2024-03-28T14:48:37.682Z,16.23
2024-03-28T14:51:09.911Z,15.96
2024-03-28T14:53:38.943Z,15.73
2024-03-28T14:56:07.082Z,15.58
2024-03-28T14:58:42.489Z,15.42
2024-03-28T15:01:12.651Z,15.30
2024-03-28T15:03:40.423Z,15.19
2024-03-28T15:06:08.312Z,15.08
2024-03-28T15:08:35.976Z,15.02
2024-03-28T15:11:05.065Z,14.94
2024-03-28T15:13:32.882Z,14.88
2024-03-28T15:16:02.203Z,14.83
2024-03-28T15:18:29.901Z,14.83
2024-03-28T15:20:57.547Z,14.82
2024-03-28T15:23:25.998Z,14.76
2024-03-28T15:25:53.623Z,14.72
2024-03-28T15:28:21.253Z,14.71
2024-03-28T15:30:49.324Z,14.70
2024-03-28T15:33:16.878Z,14.70
2024-03-28T15:35:44.506Z,14.72
2024-03-28T15:38:12.134Z,14.70
2024-03-28T15:40:39.835Z,14.83
2024-03-28T15:43:07.593Z,15.91
2024-03-28T15:45:35.573Z,17.73
2024-03-28T15:48:03.547Z,19.53
2024-03-28T15:50:31.192Z,21.04
2024-03-28T15:52:58.964Z,22.14
2024-03-28T15:55:26.720Z,23.05
2024-03-28T15:57:54.329Z,23.34
2024-03-28T16:00:22.097Z,23.15
2024-03-28T16:02:49.803Z,22.27
2024-03-28T16:05:17.600Z,21.12
2024-03-28T16:07:45.550Z,20.18
2024-03-28T16:10:14.672Z,19.48
2024-03-28T16:12:43.774Z,18.91
2024-03-28T16:15:11.383Z,18.33
2024-03-28T16:17:39.111Z,17.72
2024-03-28T16:20:07.370Z,17.21
2024-03-28T16:22:34.994Z,16.74
2024-03-28T16:25:02.774Z,16.34
2024-03-28T16:27:30.684Z,16.01
2024-03-28T16:29:58.299Z,15.74
2024-03-28T16:32:25.927Z,15.48
2024-03-28T16:34:53.588Z,15.24
2024-03-28T16:37:21.175Z,14.99
2024-03-28T16:39:48.849Z,14.77
2024-03-28T16:42:16.483Z,14.52
2024-03-28T16:44:44.163Z,14.32
2024-03-28T16:47:12.028Z,14.15
2024-03-28T16:49:39.611Z,14.01
2024-03-28T16:52:07.815Z,13.89
2024-03-28T16:54:35.431Z,13.75
2024-03-28T16:57:03.107Z,13.61
2024-03-28T16:59:30.788Z,13.48
2024-03-28T17:01:58.355Z,13.37
2024-03-28T17:04:27.379Z,13.24
2024-03-28T17:06:56.506Z,13.11
2024-03-28T17:09:24.118Z,12.99
2024-03-28T17:11:52.666Z,12.90
2024-03-28T17:14:20.603Z,12.82
2024-03-28T17:16:48.240Z,12.74
2024-03-28T17:19:18.224Z,12.68
2024-03-28T17:21:47.666Z,12.61
2024-03-28T17:24:15.247Z,12.55
2024-03-28T17:26:42.948Z,12.46
2024-03-28T17:29:10.703Z,12.38
2024-03-28T17:31:38.300Z,12.29
2024-03-28T17:34:06.004Z,12.24
2024-03-28T17:36:33.707Z,12.19
2024-03-28T17:39:01.379Z,12.11
2024-03-28T17:41:29.295Z,12.03
2024-03-28T17:43:57.009Z,11.96
2024-03-28T17:46:25.749Z,11.90
2024-03-28T17:48:54.710Z,11.83
2024-03-28T17:51:22.470Z,11.77
2024-03-28T17:53:50.705Z,11.72
2024-03-28T17:56:18.356Z,11.68
2024-03-28T17:58:46.273Z,11.63
2024-03-28T18:01:13.874Z,11.60
2024-03-28T18:03:41.793Z,11.54
2024-03-28T18:06:09.419Z,11.48
2024-03-28T18:08:37.014Z,11.41
2024-03-28T18:11:04.706Z,11.33
2024-03-28T18:13:32.433Z,11.26
2024-03-28T18:16:04.108Z,11.20
2024-03-28T18:18:31.820Z,11.17
2024-03-28T18:21:03.215Z,11.16
2024-03-28T18:23:30.914Z,11.16
2024-03-28T18:26:00.906Z,11.16
2024-03-28T18:28:28.757Z,11.15
2024-03-28T18:30:56.384Z,11.13
2024-03-28T18:33:24.152Z,11.10
2024-03-28T18:36:02.012Z,11.08
2024-03-28T18:38:29.962Z,11.05
2024-03-28T18:40:57.644Z,11.03
2024-03-28T18:43:25.666Z,11.00
2024-03-28T18:45:58.656Z,10.99
2024-03-28T18:48:26.814Z,10.97
2024-03-28T18:50:55.730Z,10.97
2024-03-28T18:53:23.465Z,10.95
2024-03-28T18:56:02.035Z,10.94
2024-03-28T18:58:29.726Z,10.92
2024-03-28T19:00:57.819Z,10.90
2024-03-28T19:03:25.607Z,10.87
2024-03-28T19:05:53.425Z,10.85
2024-03-28T19:08:21.120Z,10.81
2024-03-28T19:10:49.777Z,10.78
2024-03-28T19:13:17.384Z,10.77
2024-03-28T19:15:47.582Z,10.76
2024-03-28T19:18:16.037Z,10.75
2024-03-28T19:20:46.799Z,10.75
2024-03-28T19:23:16.580Z,10.74
2024-03-28T19:25:46.631Z,10.73
2024-03-28T19:28:14.976Z,10.72
2024-03-28T19:30:45.170Z,10.70
2024-03-28T19:33:13.349Z,10.66
2024-03-28T19:35:42.381Z,10.63
2024-03-28T19:38:12.381Z,10.61
2024-03-28T19:40:40.109Z,10.63
2024-03-28T19:43:07.852Z,10.68
2024-03-28T19:45:37.912Z,10.73
2024-03-28T19:48:07.489Z,10.78
2024-03-28T19:50:35.746Z,10.82
2024-03-28T19:53:04.613Z,10.82
2024-03-28T19:55:33.023Z,10.83
2024-03-28T19:58:01.003Z,10.88
2024-03-28T20:00:29.222Z,10.96
2024-03-28T20:02:56.952Z,11.04
2024-03-28T20:05:25.918Z,11.12
2024-03-28T20:07:58.742Z,11.20
2024-03-28T20:10:26.681Z,11.27
2024-03-28T20:12:54.285Z,11.32
2024-03-28T20:15:24.249Z,11.37
2024-03-28T20:17:52.008Z,11.41
2024-03-28T20:20:19.636Z,11.42
2024-03-28T20:22:47.580Z,11.44
2024-03-28T20:25:15.397Z,11.45
2024-03-28T20:27:43.379Z,11.47
2024-03-28T20:30:11.682Z,11.45
2024-03-28T20:32:39.411Z,11.42
2024-03-28T20:35:07.352Z,11.38
2024-03-28T20:37:37.846Z,11.34
2024-03-28T20:40:06.286Z,11.31
2024-03-28T20:42:33.948Z,11.26
2024-03-28T20:45:01.634Z,11.18
2024-03-28T20:47:29.469Z,11.08
2024-03-28T20:49:57.373Z,10.98
2024-03-28T20:52:25.075Z,10.93
2024-03-28T21:18:09.306Z,9.92
2024-03-28T21:20:36.992Z,9.88
2024-03-28T21:23:04.790Z,9.83
2024-03-28T21:25:32.675Z,9.77
2024-03-28T21:28:00.449Z,9.69
2024-03-28T21:30:30.213Z,9.57
2024-03-28T21:32:57.989Z,9.46
2024-03-28T21:35:29.164Z,9.38
2024-03-28T21:37:56.787Z,9.30
2024-03-28T21:40:24.612Z,9.26
2024-03-28T21:42:52.311Z,9.22
2024-03-28T21:45:19.994Z,9.17
2024-03-28T21:47:47.699Z,9.15
2024-03-28T21:50:15.373Z,9.12
2024-03-28T21:52:43.058Z,9.08
2024-03-28T21:55:11.399Z,9.04
2024-03-28T21:57:39.114Z,8.98
2024-03-28T22:00:07.762Z,8.90
2024-03-28T22:02:36.038Z,8.81
2024-03-28T22:05:03.870Z,8.72
2024-03-28T22:07:31.552Z,8.60
2024-03-28T22:10:00.074Z,8.50
2024-03-28T22:12:27.850Z,8.40
2024-03-28T22:14:55.412Z,8.31
2024-03-28T22:17:23.175Z,8.22
2024-03-28T22:19:50.762Z,8.08
2024-03-28T22:22:18.332Z,7.97
2024-03-28T22:24:46.512Z,7.89
2024-03-28T22:27:14.344Z,7.83
2024-03-28T22:29:41.938Z,7.78
2024-03-28T22:32:09.634Z,7.73
2024-03-28T22:34:37.474Z,7.66
2024-03-28T22:37:05.126Z,7.55
2024-03-28T22:39:33.112Z,7.43
2024-03-28T22:42:01.020Z,7.32
2024-03-28T22:44:28.608Z,7.22
2024-03-28T22:46:56.336Z,7.11
2024-03-28T22:49:24.156Z,7.01
2024-03-28T22:51:52.657Z,6.92
2024-03-28T22:54:20.572Z,6.85
2024-03-28T22:56:48.323Z,6.81
2024-03-28T22:59:15.882Z,6.76
2024-03-28T23:01:43.603Z,6.74
2024-03-28T23:04:11.429Z,6.74
2024-03-28T23:06:39.055Z,6.73
2024-03-28T23:09:06.672Z,6.71
2024-03-28T23:11:34.261Z,6.69
2024-03-28T23:14:01.925Z,6.70
2024-03-28T23:16:29.727Z,6.69
2024-03-28T23:18:57.327Z,6.68
2024-03-28T23:21:25.286Z,6.69
2024-03-28T23:23:53.019Z,6.70
2024-03-28T23:26:20.669Z,6.71
2024-03-28T23:28:48.892Z,6.74
2024-03-28T23:31:16.493Z,6.74
2024-03-28T23:33:44.088Z,6.74
2024-03-28T23:36:11.727Z,6.74
2024-03-28T23:38:39.684Z,6.75
2024-03-28T23:41:07.357Z,6.75
2024-03-28T23:43:34.984Z,6.76
2024-03-28T23:46:02.730Z,6.75
2024-03-28T23:48:30.369Z,6.74
2024-03-28T23:50:58.146Z,6.76
2024-03-28T23:53:25.988Z,6.73
2024-03-28T23:55:53.697Z,6.73
2024-03-28T23:58:21.285Z,6.74
